AirNav   Everest Fuels
 
 1066 users online  

II59 Strip Airport
Newport, Indiana, USA

GOING TO NEWPORT?


FAA INFORMATION EFFECTIVE 05 DECEMBER 2019

Location

FAA Identifier: II59
Lat/Long: 39-50-24.1370N 087-23-37.0580W
39-50.402283N 087-23.617633W
39.8400381,-87.3936272
(estimated)
Elevation: 650 ft. / 198 m (estimated)
Variation: 01W (1985)
From city: 3 miles N of NEWPORT, IN
Time zone: UTC -5 (UTC -4 during Daylight Saving Time)
Zip code: 47854

Airport Operations

Airport use: Private use. Permission required prior to landing
Activation date: 05/1982
Control tower: no
ARTCC: INDIANAPOLIS CENTER
FSS: TERRE HAUTE FLIGHT SERVICE STATION
Attendance: UNATNDD
Segmented circle: no

Airport Communications

WX AWOS-3 at PRG (15 nm SW): 124.175 (217-465-4304)

Nearby radio navigation aids

VOR radial/distance  VOR name  Freq  Var
TTHr340/22.1TERRE HAUTE VORTAC115.3002E
DNVr163/28.2DANVILLE VORTAC111.0002E

 
NDB name  Hdg/Dist  Freq  Var  ID
CRAWFORDSVILLE253/23.638804WCFJ -.-. ..-. .---

Airport Services

Runway Information

Runway 7/25

Dimensions: 1000 x 50 ft. / 305 x 15 m
Surface: turf
RUNWAY 7  RUNWAY 25
Traffic pattern: leftleft
Obstructions: 40 ft. trees, 200 ft. from runway40 ft. trees, 200 ft. from runway

Airport Ownership and Management from official FAA records

Ownership: Privately-owned
Owner: MALCOLM H. AUKERMAN
BOX 67
NEWPORT, IN 47966
Phone 765-492-4329
Manager: MALCOLM H. AUKERMAN
BOX 67
NEWPORT, IN 47966
Phone 765-492-4329

Airport Operational Statistics

Aircraft based on the field: 1
Single engine airplanes: 1
    

Additional Remarks

OWNER DESIRES AIRPORT NOT TO BE CHARTED.
FOR CD CTC HULMAN APCH AT 812-877-7581.

Instrument Procedures

There are no published instrument procedures at II59.

Some nearby airports with instrument procedures:

KPRG - Edgar County Airport (15 nm SW)
3I3 - Sky King Airport (18 nm S)
KCFJ - Crawfordsville Regional Airport (23 nm E)
KDNV - Vermilion Regional Airport (23 nm NW)
KHUF - Terre Haute Regional Airport (24 nm S)
 
Loc | Ops | Rwys | IFR | FBO | Links
Com | Nav | Svcs | Stats | Notes
Area around II59 (Strip Airport)
 
Road maps at: MapQuest Bing Google
 
Aerial photo
No photo
 
Sectional chart

 
Airport distance calculator
Flying to Strip Airport? Find the distance to fly.

From to II59

Sunrise and sunset
Times for 06-Dec-2019
 Local
(UTC-5)
 Zulu
(UTC)
Morning civil twilight07:2712:27
Sunrise07:5812:58
Sunset17:2422:24
Evening civil twilight17:5422:54

Current date and time
Zulu (UTC)  06-Dec-2019 13:42:32
Local (UTC-5)  06-Dec-2019 08:42:32
 
METAR
KPRG 
15nm SW 
061315Z AUTO 00000KT 10SM OVC090 07/05 A3009 RMK AO2 T00720049
KCFJ 
23nm E 
061315Z AUTO 29008KT 10SM BKN110 06/02 A3006 RMK AO2 T00610024
KHUF 
24nm S 
061253Z 00000KT 10SM FEW075 FEW100 08/03 A3006 RMK AO2 SLP182 T00830028
KDNV 
24nm NW 
061315Z AUTO 34012KT 10SM CLR 05/03 A3007 RMK AO2 T00460027
KGPC 
29nm SE 
061315Z AUTO 00000KT 7SM OVC100 07/01 A3006 RMK AO2
TAF
KHUF 
24nm S 
061120Z 0612/0712 23005KT P6SM OVC070 FM061300 27005KT P6SM BKN080 FM061600 01010KT P6SM BKN040 FM061700 02010KT P6SM BKN015 FM061800 02010KT P6SM SCT020 FM070100 VRB03KT P6SM FEW250
NOTAMs
Click for the latest NOTAMs
NOTAMs are issued by the DoD/FAA and will open in a separate window not controlled by AirNav.

 

 
 

Would you like to see your business listed on this page?

 If your business provides an interesting product or service to pilots, flight crews, aircraft, or users of the Strip Airport, you should consider listing it here.  To start the listing process, click on the button below
 
Add a business
 

Other Pages about Strip Airport

Update a link
 
Copyright © AirNav, LLC. All rights reserved. Privacy Policy  Contact